Ocean Navigator — WSC2552 — position and weather

sailwx.info

Track history (hours):
 
Tides and Currents Weather Stations Pressure Air Temp Water Temp Dewpoint Dewpoint Depression Visibility Wind Speed Wind Dir Waves Ship Positions

Ocean Navigator

Owner: OCEAN NAVIGATOR INC, SEATTLE, WA. More information available from US FCC via Universal Licensing System and Coast Guard Vessel Documentation Center.

Last reported at 2015-Mar-02 20:27 UTC. Time now 2015-Mar-04 04:23 UTC.
Position N 58°15' W 136°03'.

Type: Tow > 200 m length. MMSI: 366358000.

Date/timePositionNaut miles runAvg speedWind from/ knotsBaromVisibWave heightAir tempDewpointWater temp
2015-Mar-02 20:27N 58°15' W 136°03'8 9.1
2015-Mar-02 19:32N 58°18' W 135°48'  
2015-Feb-28 00:28N 51°35' W 127°53'7 7.0
2015-Feb-27 23:30N 51°28' W 127°51'14 6.5
2015-Feb-27 21:19N 51°14' W 127°52'5 6.9
2015-Feb-27 20:33N 51°09' W 127°50'8 7.8
2015-Feb-27 19:32N 51°04' W 127°41'9 8.7
2015-Feb-27 18:33N 50°58' W 127°31'9 9.3
2015-Feb-27 17:33N 50°53' W 127°19'9 9.0
2015-Feb-27 16:31N 50°48' W 127°06'11 9.0
2015-Feb-27 15:17N 50°41' W 126°53'7 9.2
2015-Feb-27 14:28N 50°36' W 126°44'11 8.8
2015-Feb-27 13:14N 50°30' W 126°29'77 8.0
2015-Feb-27 03:33N 49°47' W 124°49'9 9.2
2015-Feb-27 02:33N 49°41' W 124°38'9 9.3
2015-Feb-27 01:33N 49°36' W 124°26'9 9.3
2015-Feb-27 00:33N 49°31' W 124°14'10 9.3
2015-Feb-26 23:28N 49°25' W 124°02'9 9.1
2015-Feb-26 22:32N 49°20' W 123°51'9 9.5
2015-Feb-26 21:33N 49°14' W 123°40'9 9.4
2015-Feb-26 20:33N 49°08' W 123°29'9 9.1
2015-Feb-26 19:33N 49°03' W 123°18'9 8.6
2015-Feb-26 18:33N 48°57' W 123°08'9 9.3
2015-Feb-26 17:33N 48°51' W 122°58'10 9.4
2015-Feb-26 16:32N 48°45' W 122°46'8 8.6
2015-Feb-26 15:33N 48°37' W 122°45'9 9.3
2015-Feb-26 14:33N 48°28' W 122°44'17 8.5
2015-Feb-26 12:30N 48°10' W 122°44'9 9.9
2015-Feb-26 11:33N 48°02' W 122°37'910.0
2015-Feb-26 10:40N 47°55' W 122°29'1 9.9
2015-Feb-26 10:33N 47°54' W 122°28'9 9.3
2015-Feb-26 09:33N 47°45' W 122°26'10 9.4
2015-Feb-26 08:32N 47°36' W 122°27'9 8.9
2015-Feb-26 07:33N 47°27' W 122°24'7 7.3
2015-Feb-26 06:33N 47°20' W 122°25'3 3.0
2015-Feb-26 05:33N 47°17' W 122°25'1 1.1
2015-Feb-26 04:32N 47°16' W 122°24'6 5.7
2015-Feb-26 03:33N 47°22' W 122°24'1111.0
2015-Feb-26 02:33N 47°33' W 122°25'311.6
2015-Feb-26 02:20N 47°35' W 122°26'5 6.9
2015-Feb-26 01:33N 47°41' W 122°25'1 0.9
2015-Feb-26 00:43N 47°40' W 122°26'1 7.2
2015-Feb-26 00:33N 47°39' W 122°27'0 0.1
2015-Feb-26 00:13N 47°39' W 122°27'2 3.3
2015-Feb-25 23:33N 47°40' W 122°23'0 4.0
2015-Feb-25 23:32N 47°40' W 122°23'1 1.1
2015-Feb-25 22:33N 47°39' W 122°22'0 0.0
2015-Feb-25 22:02N 47°39' W 122°22'  
Track history (hours):
 
Tides and Currents Weather Stations Pressure Air Temp Water Temp Dewpoint Dewpoint Depression Visibility Wind Speed Wind Dir Waves Ship Positions

Ocean Navigator

Owner: OCEAN NAVIGATOR INC, SEATTLE, WA. More information available from US FCC via Universal Licensing System and Coast Guard Vessel Documentation Center.

Last reported at 2015-Mar-02 20:27 UTC. Time now 2015-Mar-04 04:23 UTC.
Position N 58°15' W 136°03'.

Type: Tow > 200 m length. MMSI: 366358000.

Date/timePositionNaut miles runAvg speedWind from/ knotsBaromVisibWave heightAir tempDewpointWater temp
2015-Mar-02 20:27N 58°15' W 136°03'8 9.1
2015-Mar-02 19:32N 58°18' W 135°48'  
2015-Feb-28 00:28N 51°35' W 127°53'7 7.0
2015-Feb-27 23:30N 51°28' W 127°51'14 6.5
2015-Feb-27 21:19N 51°14' W 127°52'5 6.9
2015-Feb-27 20:33N 51°09' W 127°50'8 7.8
2015-Feb-27 19:32N 51°04' W 127°41'9 8.7
2015-Feb-27 18:33N 50°58' W 127°31'9 9.3
2015-Feb-27 17:33N 50°53' W 127°19'9 9.0
2015-Feb-27 16:31N 50°48' W 127°06'11 9.0
2015-Feb-27 15:17N 50°41' W 126°53'7 9.2
2015-Feb-27 14:28N 50°36' W 126°44'11 8.8
2015-Feb-27 13:14N 50°30' W 126°29'77 8.0
2015-Feb-27 03:33N 49°47' W 124°49'9 9.2
2015-Feb-27 02:33N 49°41' W 124°38'9 9.3
2015-Feb-27 01:33N 49°36' W 124°26'9 9.3
2015-Feb-27 00:33N 49°31' W 124°14'10 9.3
2015-Feb-26 23:28N 49°25' W 124°02'9 9.1
2015-Feb-26 22:32N 49°20' W 123°51'9 9.5
2015-Feb-26 21:33N 49°14' W 123°40'9 9.4
2015-Feb-26 20:33N 49°08' W 123°29'9 9.1
2015-Feb-26 19:33N 49°03' W 123°18'9 8.6
2015-Feb-26 18:33N 48°57' W 123°08'9 9.3
2015-Feb-26 17:33N 48°51' W 122°58'10 9.4
2015-Feb-26 16:32N 48°45' W 122°46'8 8.6
2015-Feb-26 15:33N 48°37' W 122°45'9 9.3
2015-Feb-26 14:33N 48°28' W 122°44'17 8.5
2015-Feb-26 12:30N 48°10' W 122°44'9 9.9
2015-Feb-26 11:33N 48°02' W 122°37'910.0
2015-Feb-26 10:40N 47°55' W 122°29'1 9.9
2015-Feb-26 10:33N 47°54' W 122°28'9 9.3
2015-Feb-26 09:33N 47°45' W 122°26'10 9.4
2015-Feb-26 08:32N 47°36' W 122°27'9 8.9
2015-Feb-26 07:33N 47°27' W 122°24'7 7.3
2015-Feb-26 06:33N 47°20' W 122°25'3 3.0
2015-Feb-26 05:33N 47°17' W 122°25'1 1.1
2015-Feb-26 04:32N 47°16' W 122°24'6 5.7
2015-Feb-26 03:33N 47°22' W 122°24'1111.0
2015-Feb-26 02:33N 47°33' W 122°25'311.6
2015-Feb-26 02:20N 47°35' W 122°26'5 6.9
2015-Feb-26 01:33N 47°41' W 122°25'1 0.9
2015-Feb-26 00:43N 47°40' W 122°26'1 7.2
2015-Feb-26 00:33N 47°39' W 122°27'0 0.1
2015-Feb-26 00:13N 47°39' W 122°27'2 3.3
2015-Feb-25 23:33N 47°40' W 122°23'0 4.0
2015-Feb-25 23:32N 47°40' W 122°23'1 1.1
2015-Feb-25 22:33N 47°39' W 122°22'0 0.0
2015-Feb-25 22:02N 47°39' W 122°22'  

Dump ship's entire track history